createdAt,value
2023-02-17T00:00:15.777Z,6.26
2023-02-17T00:02:42.258Z,6.26
2023-02-17T00:05:08.857Z,6.33
2023-02-17T00:07:35.501Z,6.34
2023-02-17T00:10:02.019Z,6.37
2023-02-17T00:12:28.526Z,6.48
2023-02-17T00:14:55.089Z,6.50
2023-02-17T00:17:21.571Z,6.53
2023-02-17T00:19:48.375Z,6.53
2023-02-17T00:22:14.899Z,6.55
2023-02-17T00:24:41.850Z,6.61
2023-02-17T00:27:08.546Z,6.60
2023-02-17T00:29:35.140Z,6.64
2023-02-17T00:32:01.725Z,6.65
2023-02-17T00:34:28.289Z,6.69
2023-02-17T00:36:54.800Z,6.74
2023-02-17T00:39:21.325Z,6.72
2023-02-17T00:41:47.857Z,6.75
2023-02-17T00:44:18.509Z,6.76
2023-02-17T00:46:45.621Z,6.79
2023-02-17T00:49:22.826Z,6.79
2023-02-17T00:51:49.719Z,6.84
2023-02-17T00:54:16.927Z,6.86
2023-02-17T00:56:43.479Z,6.85
2023-02-17T00:59:10.441Z,6.94
2023-02-17T01:01:37.190Z,6.93
2023-02-17T01:04:04.096Z,6.93
2023-02-17T01:06:32.256Z,6.96
2023-02-17T01:08:58.965Z,7.02
2023-02-17T01:11:27.269Z,7.02
2023-02-17T01:13:54.106Z,7.02
2023-02-17T01:16:20.721Z,7.03
2023-02-17T01:18:47.525Z,7.07
2023-02-17T01:21:21.111Z,7.05
2023-02-17T01:23:54.691Z,7.07
2023-02-17T01:26:22.500Z,7.07
2023-02-17T01:28:49.630Z,7.09
2023-02-17T01:31:16.460Z,7.07
2023-02-17T01:33:43.378Z,7.06
2023-02-17T01:36:10.633Z,7.03
2023-02-17T01:38:37.487Z,7.05
2023-02-17T01:41:04.539Z,7.06
2023-02-17T01:43:31.096Z,7.10
2023-02-17T01:46:01.746Z,7.09
2023-02-17T01:48:29.362Z,7.08
2023-02-17T01:50:58.831Z,7.08
2023-02-17T01:53:27.951Z,7.06
2023-02-17T01:55:54.618Z,7.07
2023-02-17T01:58:21.223Z,7.04
2023-02-17T02:00:48.405Z,7.04
2023-02-17T02:03:15.169Z,7.00
2023-02-17T02:05:41.788Z,7.05
2023-02-17T02:08:08.811Z,7.06
2023-02-17T02:10:35.579Z,7.05
2023-02-17T02:13:02.297Z,7.04
2023-02-17T02:15:30.714Z,7.09
2023-02-17T02:17:57.196Z,7.11
2023-02-17T02:20:30.409Z,7.13
2023-02-17T02:23:16.100Z,7.13
2023-02-17T02:26:01.693Z,7.12
2023-02-17T02:28:40.631Z,7.13
2023-02-17T02:31:29.320Z,7.15
2023-02-17T02:34:00.002Z,7.18
2023-02-17T02:36:29.658Z,7.19
2023-02-17T02:39:01.706Z,7.20
2023-02-17T02:41:38.552Z,7.23
2023-02-17T02:44:05.989Z,7.23
2023-02-17T02:46:32.604Z,7.23
2023-02-17T02:48:59.481Z,7.23
2023-02-17T02:51:35.221Z,7.25
2023-02-17T02:54:05.476Z,7.26
2023-02-17T02:56:50.908Z,7.19
2023-02-17T02:59:27.880Z,7.20
2023-02-17T03:02:00.117Z,7.16
2023-02-17T03:04:41.656Z,7.19
2023-02-17T03:07:10.253Z,7.20
2023-02-17T03:09:36.735Z,7.24
2023-02-17T03:12:03.355Z,7.24
2023-02-17T03:14:29.926Z,7.22
2023-02-17T03:16:56.666Z,7.25
2023-02-17T03:19:24.590Z,7.28
2023-02-17T03:21:53.327Z,7.28
2023-02-17T03:24:20.189Z,7.30
2023-02-17T03:26:46.924Z,7.34
2023-02-17T03:29:13.486Z,7.42
2023-02-17T03:31:42.727Z,7.39
2023-02-17T03:36:54.399Z,7.42
2023-02-17T03:39:22.305Z,7.38
2023-02-17T03:41:52.119Z,7.39
2023-02-17T03:44:18.873Z,7.41
2023-02-17T03:46:46.012Z,7.47
2023-02-17T03:49:13.174Z,7.45
2023-02-17T03:51:39.962Z,7.44
2023-02-17T03:54:07.114Z,7.40
2023-02-17T03:56:33.812Z,7.47
2023-02-17T03:59:00.400Z,7.49
2023-02-17T04:01:27.217Z,7.51
2023-02-17T04:03:53.979Z,7.52
2023-02-17T04:06:20.745Z,7.50
2023-02-17T04:08:47.359Z,7.52
2023-02-17T04:13:55.763Z,7.57
2023-02-17T04:16:22.735Z,7.57
2023-02-17T04:18:50.120Z,7.56
2023-02-17T04:21:16.927Z,7.59
2023-02-17T04:23:43.586Z,7.58
2023-02-17T04:26:10.611Z,7.61
2023-02-17T04:28:41.929Z,7.60
2023-02-17T04:31:08.910Z,7.59
2023-02-17T04:36:17.581Z,7.56
2023-02-17T04:38:44.562Z,7.58
2023-02-17T04:41:11.503Z,7.64
2023-02-17T04:43:40.243Z,7.66
2023-02-17T04:46:07.848Z,7.68
2023-02-17T04:48:34.627Z,7.68
2023-02-17T04:51:03.349Z,7.68
2023-02-17T04:53:31.595Z,7.68
2023-02-17T04:55:58.386Z,7.70
2023-02-17T04:58:25.176Z,7.74
2023-02-17T05:03:32.598Z,7.72
2023-02-17T05:05:59.345Z,7.69
2023-02-17T05:08:26.207Z,7.65
2023-02-17T05:10:53.373Z,7.69
2023-02-17T05:13:20.623Z,7.65
2023-02-17T05:15:47.694Z,7.67
2023-02-17T05:18:19.937Z,7.67
2023-02-17T05:20:59.780Z,7.67
2023-02-17T05:23:29.245Z,7.64
2023-02-17T05:25:56.311Z,7.68
2023-02-17T05:28:22.920Z,7.69
2023-02-17T05:33:31.422Z,7.64
2023-02-17T05:36:01.875Z,7.65
2023-02-17T05:38:28.993Z,7.71
2023-02-17T05:40:56.743Z,7.71
2023-02-17T05:43:23.842Z,7.74
2023-02-17T05:45:51.578Z,7.73
2023-02-17T05:53:45.867Z,7.72
2023-02-17T05:56:12.888Z,7.81
2023-02-17T06:01:21.182Z,7.80
2023-02-17T06:03:48.010Z,7.76
2023-02-17T06:06:14.790Z,7.78
2023-02-17T06:19:53.999Z,7.74
2023-02-17T06:22:22.133Z,7.72
2023-02-17T06:27:39.783Z,7.68
2023-02-17T06:32:51.324Z,7.63
2023-02-17T06:35:18.230Z,7.65
2023-02-17T06:37:46.095Z,7.59
2023-02-17T06:40:13.914Z,7.60
2023-02-17T06:42:44.858Z,7.64
2023-02-17T06:45:13.527Z,7.60
2023-02-17T06:47:43.853Z,7.60
2023-02-17T06:50:11.043Z,7.57
2023-02-17T06:55:20.448Z,7.58
2023-02-17T06:57:48.193Z,7.58
2023-02-17T07:00:15.708Z,7.55
2023-02-17T07:02:43.547Z,7.57
2023-02-17T07:05:10.927Z,7.60
2023-02-17T07:10:23.522Z,7.62
2023-02-17T07:12:52.360Z,7.55
2023-02-17T07:15:19.379Z,7.66
2023-02-17T07:17:46.275Z,7.66
2023-02-17T07:20:13.602Z,7.66
2023-02-17T07:25:20.995Z,7.68
2023-02-17T07:27:51.835Z,7.59
2023-02-17T07:30:19.084Z,7.59
2023-02-17T07:32:45.968Z,7.61
2023-02-17T07:35:14.943Z,7.60
2023-02-17T07:37:50.046Z,7.56
2023-02-17T07:40:28.451Z,7.54
2023-02-17T07:42:57.812Z,7.52
2023-02-17T07:45:24.404Z,7.53
2023-02-17T07:47:51.248Z,7.51
2023-02-17T07:50:18.186Z,7.50
2023-02-17T07:55:25.876Z,7.64
2023-02-17T07:57:52.891Z,7.61
2023-02-17T08:00:19.601Z,7.62
2023-02-17T08:02:51.135Z,7.65
2023-02-17T08:05:21.515Z,7.72
2023-02-17T08:11:13.574Z,7.69
2023-02-17T08:13:40.299Z,7.68
2023-02-17T08:16:07.045Z,7.74
2023-02-17T08:18:36.458Z,7.72
2023-02-17T08:21:04.217Z,7.74
2023-02-17T08:23:31.125Z,7.68
2023-02-17T08:25:59.279Z,7.67
2023-02-17T08:28:25.922Z,7.67
2023-02-17T08:30:53.498Z,7.63
2023-02-17T08:33:20.134Z,7.59
2023-02-17T08:35:46.897Z,7.64
2023-02-17T08:38:13.730Z,7.71
2023-02-17T08:40:40.349Z,7.69
2023-02-17T08:43:07.896Z,7.70
2023-02-17T08:45:36.885Z,7.74
2023-02-17T08:48:04.348Z,7.71
2023-02-17T08:50:30.996Z,7.77
2023-02-17T08:52:57.800Z,7.82
2023-02-17T08:55:24.467Z,7.85
2023-02-17T08:57:51.144Z,7.92
2023-02-17T09:00:19.540Z,7.97
2023-02-17T09:02:46.871Z,7.99
2023-02-17T09:05:14.253Z,7.98
2023-02-17T09:07:41.785Z,8.00
2023-02-17T09:12:52.627Z,8.09
2023-02-17T09:15:19.487Z,8.15
2023-02-17T09:20:26.589Z,8.20
2023-02-17T09:22:53.235Z,8.27
2023-02-17T09:25:20.097Z,8.30
2023-02-17T09:27:46.733Z,8.39
2023-02-17T09:30:13.716Z,8.52
2023-02-17T09:32:43.983Z,8.60
2023-02-17T09:37:54.849Z,8.89
2023-02-17T09:43:03.959Z,9.18
2023-02-17T09:48:14.407Z,9.31
2023-02-17T09:53:32.550Z,9.43
2023-02-17T09:55:59.690Z,9.41
2023-02-17T09:58:43.310Z,9.55
2023-02-17T10:04:01.759Z,9.68
2023-02-17T10:06:34.181Z,9.78
2023-02-17T10:09:08.451Z,10.00
2023-02-17T10:31:20.052Z,10.20
2023-02-17T10:36:56.547Z,10.30
2023-02-17T10:39:51.467Z,10.41
2023-02-17T10:42:51.431Z,10.73
2023-02-17T10:45:18.829Z,10.79
2023-02-17T10:47:45.559Z,10.89
2023-02-17T10:50:21.020Z,10.93
2023-02-17T10:52:47.751Z,10.98
2023-02-17T10:55:26.620Z,10.96
2023-02-17T10:57:54.716Z,11.06
2023-02-17T11:00:22.444Z,11.09
2023-02-17T11:02:52.872Z,11.09
2023-02-17T11:05:37.020Z,11.27
2023-02-17T11:08:15.506Z,11.27
2023-02-17T11:10:46.863Z,11.30
2023-02-17T11:13:31.205Z,11.45
2023-02-17T11:15:57.791Z,11.56
2023-02-17T11:18:33.059Z,11.82
2023-02-17T11:38:50.976Z,12.47
2023-02-17T11:44:02.914Z,12.75
2023-02-17T11:47:10.677Z,13.12
2023-02-17T11:49:46.367Z,12.95
2023-02-17T12:48:05.984Z,14.62
2023-02-17T15:01:10.100Z,10.75
2023-02-17T15:03:42.078Z,10.51
2023-02-17T15:06:32.670Z,10.30
2023-02-17T15:08:59.673Z,10.11
2023-02-17T15:11:39.585Z,10.03
2023-02-17T15:14:06.459Z,9.95
2023-02-17T15:16:33.272Z,9.93
2023-02-17T15:19:00.017Z,9.88
2023-02-17T15:21:26.757Z,9.80
2023-02-17T15:23:53.810Z,9.75
2023-02-17T15:26:20.388Z,9.72
2023-02-17T15:28:46.923Z,9.69
2023-02-17T15:31:15.602Z,9.64
2023-02-17T15:33:43.089Z,9.59
2023-02-17T15:36:13.421Z,9.55
2023-02-17T15:38:40.409Z,9.52
2023-02-17T15:41:11.944Z,9.49
2023-02-17T15:43:38.479Z,9.46
2023-02-17T15:46:10.435Z,9.43
2023-02-17T15:48:37.101Z,9.40
2023-02-17T15:51:03.812Z,9.39
2023-02-17T15:53:33.296Z,9.35
2023-02-17T15:56:03.002Z,9.34
2023-02-17T15:58:29.636Z,9.32
2023-02-17T16:01:00.719Z,9.25
2023-02-17T16:03:28.005Z,9.25
2023-02-17T16:05:54.983Z,9.22
2023-02-17T16:08:21.849Z,9.22
2023-02-17T16:10:50.410Z,9.21
2023-02-17T16:13:22.010Z,9.19
2023-02-17T16:15:51.081Z,9.19
2023-02-17T16:21:02.232Z,9.09
2023-02-17T16:23:29.259Z,9.06
2023-02-17T16:25:55.970Z,9.01
2023-02-17T16:28:22.701Z,8.95
2023-02-17T16:30:49.813Z,8.86
2023-02-17T16:33:17.178Z,8.82
2023-02-17T16:35:43.800Z,8.80
2023-02-17T16:38:13.463Z,8.75
2023-02-17T16:40:47.313Z,8.72
2023-02-17T16:43:15.491Z,8.69
2023-02-17T16:45:46.449Z,8.66
2023-02-17T16:48:13.820Z,8.64
2023-02-17T16:50:40.594Z,8.60
2023-02-17T16:53:08.868Z,8.63
2023-02-17T16:55:35.878Z,8.57
2023-02-17T16:58:02.940Z,8.50
2023-02-17T17:00:30.838Z,8.47
2023-02-17T17:02:58.128Z,8.46
2023-02-17T17:05:25.656Z,8.38
2023-02-17T17:07:53.321Z,8.35
2023-02-17T17:10:22.886Z,8.30
2023-02-17T17:12:50.204Z,8.28
2023-02-17T17:15:17.774Z,8.28
2023-02-17T17:20:31.767Z,8.25
2023-02-17T17:22:59.457Z,8.25
2023-02-17T17:25:36.124Z,8.29
2023-02-17T17:28:08.141Z,8.27
2023-02-17T17:30:36.390Z,8.25
2023-02-17T17:33:03.274Z,8.23
2023-02-17T17:35:30.422Z,8.24
2023-02-17T17:38:04.199Z,8.22
2023-02-17T17:40:37.239Z,8.23
2023-02-17T17:45:48.417Z,8.26
2023-02-17T17:48:28.958Z,8.25
2023-02-17T17:53:45.365Z,8.22
2023-02-17T18:18:54.729Z,8.26
2023-02-17T18:37:32.252Z,8.20
2023-02-17T18:40:00.882Z,8.16
2023-02-17T18:45:16.338Z,8.19
2023-02-17T18:47:45.701Z,8.19
2023-02-17T18:55:37.291Z,8.16
2023-02-17T18:58:04.626Z,8.16
2023-02-17T19:00:31.463Z,8.15
2023-02-17T19:03:06.215Z,8.16
2023-02-17T19:05:34.902Z,8.14
2023-02-17T19:16:08.020Z,8.12
2023-02-17T19:21:24.729Z,8.15
2023-02-17T19:23:56.904Z,8.15
2023-02-17T19:26:26.097Z,8.17
2023-02-17T19:28:55.930Z,8.17
2023-02-17T19:31:24.325Z,8.16
2023-02-17T19:33:51.721Z,8.19
2023-02-17T19:36:24.988Z,8.19
2023-02-17T19:41:36.001Z,8.20
2023-02-17T19:46:44.632Z,8.24
2023-02-17T19:49:12.661Z,8.17
2023-02-17T19:51:39.883Z,8.17
2023-02-17T19:54:07.302Z,8.17
2023-02-17T20:02:07.035Z,8.20
2023-02-17T20:09:59.615Z,8.24
2023-02-17T20:29:11.552Z,8.17
2023-02-17T20:31:41.029Z,8.14
2023-02-17T20:36:59.547Z,8.17
2023-02-17T20:39:41.410Z,8.23
2023-02-17T20:42:10.380Z,8.23
2023-02-17T21:05:09.838Z,8.23
2023-02-17T21:43:47.014Z,8.25
